createdAt,value
2018-08-22T00:17:21.811Z,64.54
2018-08-22T00:37:13.362Z,65.47
2018-08-22T00:39:43.684Z,65.41
2018-08-22T00:42:13.350Z,65.29
2018-08-22T00:44:42.739Z,65.53
2018-08-22T00:47:12.663Z,65.45
2018-08-22T00:49:42.527Z,65.07
2018-08-22T00:52:12.222Z,65.00
2018-08-22T00:54:42.274Z,65.36
2018-08-22T00:57:11.951Z,65.89
2018-08-22T00:59:41.618Z,65.69
2018-08-22T01:02:11.245Z,66.32
2018-08-22T01:04:41.526Z,66.09
2018-08-22T01:07:11.142Z,66.19
2018-08-22T01:09:41.970Z,65.80
2018-08-22T01:12:11.564Z,66.13
2018-08-22T01:14:41.081Z,65.75
2018-08-22T01:17:11.124Z,66.15
2018-08-22T01:37:00.672Z,66.48
2018-08-22T01:39:32.265Z,66.50
2018-08-22T01:42:01.910Z,66.47
2018-08-22T01:44:32.963Z,66.24
2018-08-22T01:47:02.485Z,66.31
2018-08-22T01:49:33.047Z,66.83
2018-08-22T02:09:23.970Z,67.37
2018-08-22T02:11:53.746Z,67.05
2018-08-22T02:14:23.526Z,68.45
2018-08-22T02:16:52.862Z,68.07
2018-08-22T02:19:22.838Z,67.98
2018-08-22T02:21:52.625Z,66.53
2018-08-22T02:24:22.204Z,66.32
2018-08-22T02:26:52.312Z,66.44
2018-08-22T02:29:22.151Z,66.12
2018-08-22T02:31:51.671Z,65.83
2018-08-22T02:34:21.692Z,66.50
2018-08-22T02:36:51.381Z,66.70
2018-08-22T02:39:20.885Z,66.69
2018-08-22T02:41:50.266Z,66.64
2018-08-22T02:44:19.987Z,66.62
2018-08-22T02:46:49.516Z,66.63
2018-08-22T02:49:19.510Z,67.02
2018-08-22T02:51:48.935Z,67.35
2018-08-22T02:54:18.546Z,66.91
2018-08-22T02:56:48.377Z,66.58
2018-08-22T02:59:17.887Z,66.27
2018-08-22T03:01:47.453Z,66.22
2018-08-22T03:04:17.353Z,66.36
2018-08-22T03:06:46.901Z,66.58
2018-08-22T03:09:16.417Z,66.31
2018-08-22T03:11:46.542Z,66.55
2018-08-22T03:14:15.977Z,66.60
2018-08-22T03:16:45.745Z,65.83
2018-08-22T03:19:15.581Z,66.19
2018-08-22T03:39:07.615Z,66.28
2018-08-22T03:41:37.300Z,66.48
2018-08-22T03:44:07.112Z,66.45
2018-08-22T03:46:36.413Z,66.71
2018-08-22T03:49:06.226Z,66.40
2018-08-22T03:51:35.948Z,66.46
2018-08-22T03:54:05.956Z,66.32
2018-08-22T03:56:35.666Z,66.08
2018-08-22T03:59:05.289Z,66.31
2018-08-22T04:01:35.020Z,66.12
2018-08-22T04:04:05.029Z,66.12
2018-08-22T04:06:34.820Z,66.02
2018-08-22T04:09:04.895Z,66.26
2018-08-22T04:11:34.427Z,66.15
2018-08-22T04:14:04.487Z,66.30
2018-08-22T04:16:34.289Z,66.36
2018-08-22T04:19:03.796Z,66.41
2018-08-22T04:21:33.368Z,66.57
2018-08-22T04:24:02.666Z,66.44
2018-08-22T04:26:32.626Z,66.46
2018-08-22T04:29:01.911Z,66.48
2018-08-22T04:31:31.925Z,66.78
2018-08-22T04:34:02.086Z,66.04
2018-08-22T04:36:31.589Z,66.12
2018-08-22T04:39:01.289Z,66.45
2018-08-22T04:41:31.585Z,65.62
2018-08-22T04:44:01.401Z,66.15
2018-08-22T04:46:31.121Z,65.87
2018-08-22T04:49:00.887Z,65.96
2018-08-22T04:51:30.485Z,66.01
2018-08-22T04:53:59.913Z,63.78
2018-08-22T04:56:29.407Z,64.21
2018-08-22T04:58:58.888Z,63.65
2018-08-22T05:01:28.897Z,63.32
2018-08-22T05:03:58.701Z,63.50
2018-08-22T05:06:28.289Z,62.79
2018-08-22T05:08:58.070Z,62.62
2018-08-22T05:11:27.768Z,61.79
2018-08-22T05:13:57.337Z,62.00
2018-08-22T05:16:26.939Z,62.59
2018-08-22T05:18:57.050Z,62.00
2018-08-22T05:21:26.491Z,62.08
2018-08-22T05:23:56.259Z,62.01
2018-08-22T05:26:26.217Z,62.88
2018-08-22T05:28:56.090Z,62.57
2018-08-22T05:31:25.594Z,62.47
2018-08-22T05:51:17.737Z,62.88
2018-08-22T05:53:47.227Z,63.44
2018-08-22T05:56:16.665Z,63.24
2018-08-22T05:58:46.198Z,63.41
2018-08-22T06:01:15.814Z,63.26
2018-08-22T06:03:45.291Z,62.28
2018-08-22T06:23:35.979Z,62.91
2018-08-22T06:26:05.638Z,62.40
2018-08-22T06:28:35.402Z,62.04
2018-08-22T06:31:05.343Z,61.63
2018-08-22T06:53:51.197Z,61.24
2018-08-22T06:56:20.993Z,59.59
2018-08-22T06:58:50.593Z,58.99
2018-08-22T07:01:20.204Z,59.42
2018-08-22T07:03:49.502Z,59.97
2018-08-22T07:06:19.296Z,58.75
2018-08-22T07:26:08.246Z,56.50
2018-08-22T07:28:37.939Z,56.71
2018-08-22T07:48:29.233Z,54.97
2018-08-22T08:08:21.686Z,51.00
2018-08-22T08:10:51.583Z,51.90
2018-08-22T08:13:26.257Z,51.41
2018-08-22T08:15:56.459Z,51.37
2018-08-22T08:18:26.207Z,51.96
2018-08-22T08:38:18.081Z,46.98
2018-08-22T08:40:47.555Z,45.12
2018-08-22T08:43:17.134Z,45.40
2018-08-22T08:45:47.415Z,44.81
2018-08-22T08:48:16.959Z,44.75
2018-08-22T09:08:08.934Z,44.65
2018-08-22T09:10:38.476Z,45.61
2018-08-22T09:13:10.692Z,44.51
2018-08-22T09:15:40.642Z,43.48
2018-08-22T09:35:32.225Z,41.23
2018-08-22T09:38:01.704Z,42.85
2018-08-22T09:40:31.291Z,39.18
2018-08-22T09:43:00.997Z,39.16
2018-08-22T09:45:30.882Z,39.74
2018-08-22T09:48:00.754Z,40.62
2018-08-22T09:50:30.893Z,38.65
2018-08-22T09:53:00.380Z,38.74
2018-08-22T09:55:29.872Z,38.27
2018-08-22T09:57:59.690Z,38.05
2018-08-22T10:00:34.311Z,37.94
2018-08-22T10:03:04.121Z,37.41
2018-08-22T10:05:33.741Z,38.02
2018-08-22T10:08:03.468Z,37.37
2018-08-22T10:10:33.577Z,35.99
2018-08-22T10:13:03.098Z,34.68
2018-08-22T10:15:32.990Z,35.42
2018-08-22T10:35:24.662Z,32.50
2018-08-22T10:37:54.173Z,32.66
2018-08-22T10:40:23.738Z,33.91
2018-08-22T11:00:14.594Z,32.74
2018-08-22T11:02:44.240Z,32.55
2018-08-22T11:05:13.691Z,30.93
2018-08-22T11:07:43.763Z,30.75
2018-08-22T11:10:13.406Z,31.28
2018-08-22T11:12:43.220Z,31.99
2018-08-22T11:15:13.335Z,32.72
2018-08-22T11:17:42.805Z,30.69
2018-08-22T11:20:12.259Z,31.57
2018-08-22T11:22:53.530Z,31.70
2018-08-22T11:25:34.215Z,29.42
2018-08-22T11:28:14.705Z,29.71
2018-08-22T11:30:55.245Z,31.07
2018-08-22T11:33:35.934Z,31.08
2018-08-22T11:53:27.965Z,30.56
2018-08-22T11:55:57.730Z,30.59
2018-08-22T11:58:27.504Z,29.60
2018-08-22T12:00:57.219Z,29.83
2018-08-22T12:03:27.417Z,29.66
2018-08-22T12:05:56.779Z,29.50
2018-08-22T12:08:26.950Z,28.71
2018-08-22T12:10:57.007Z,29.69
2018-08-22T12:13:26.825Z,29.59
2018-08-22T12:33:18.032Z,27.33
2018-08-22T12:35:47.414Z,27.44
2018-08-22T12:55:38.774Z,27.67
2018-08-22T13:15:31.009Z,27.54
2018-08-22T13:18:00.979Z,28.04
2018-08-22T13:20:30.375Z,28.63
2018-08-22T13:40:21.833Z,35.91
2018-08-22T13:42:51.441Z,36.27
2018-08-22T13:45:21.097Z,36.55
2018-08-22T13:47:51.242Z,35.43
2018-08-22T13:50:20.770Z,35.39
2018-08-22T13:52:50.544Z,35.37
2018-08-22T13:55:20.753Z,35.94
2018-08-22T13:57:50.171Z,36.24
2018-08-22T14:00:19.978Z,35.03
2018-08-22T14:02:49.606Z,34.36
2018-08-22T14:05:19.518Z,33.97
2018-08-22T14:07:49.097Z,33.91
2018-08-22T14:10:19.163Z,32.68
2018-08-22T14:12:48.590Z,32.04
2018-08-22T14:32:40.091Z,30.02
2018-08-22T14:58:20.030Z,35.79
2018-08-22T15:00:50.118Z,35.99
2018-08-22T15:03:19.920Z,36.44
2018-08-22T15:23:13.298Z,34.46
2018-08-22T15:43:05.384Z,34.37
2018-08-22T15:45:35.606Z,34.74
2018-08-22T16:05:26.811Z,35.48
2018-08-22T16:07:56.771Z,36.30
2018-08-22T16:10:26.090Z,35.33
2018-08-22T16:12:55.762Z,35.45
2018-08-22T16:15:26.824Z,35.72
2018-08-22T16:17:57.351Z,36.17
2018-08-22T16:20:27.829Z,35.98
2018-08-22T16:22:58.067Z,36.00
2018-08-22T16:25:38.226Z,35.76
2018-08-22T16:28:07.880Z,36.12
2018-08-22T16:30:37.738Z,36.44
2018-08-22T16:33:08.595Z,36.69
2018-08-22T16:35:38.237Z,36.94
2018-08-22T16:38:13.606Z,36.74
2018-08-22T16:40:44.374Z,37.90
2018-08-22T16:43:13.968Z,38.26
2018-08-22T16:45:49.162Z,39.21
2018-08-22T16:48:20.018Z,39.79
2018-08-22T16:50:50.837Z,39.84
2018-08-22T16:53:20.391Z,39.67
2018-08-22T16:55:49.693Z,39.97
2018-08-22T16:58:19.456Z,40.08
2018-08-22T17:00:50.091Z,40.06
2018-08-22T17:03:19.586Z,40.65
2018-08-22T17:23:10.082Z,41.12
2018-08-22T17:25:39.800Z,41.53
2018-08-22T17:28:09.692Z,41.70
2018-08-22T17:30:41.487Z,41.84
2018-08-22T17:33:12.207Z,42.29
2018-08-22T17:35:43.386Z,40.97
2018-08-22T17:38:13.915Z,41.57
2018-08-22T17:58:05.307Z,42.17
2018-08-22T18:00:36.331Z,42.51
2018-08-22T18:03:06.154Z,42.61
2018-08-22T18:05:36.652Z,42.10
2018-08-22T18:08:09.258Z,42.30
2018-08-22T18:10:39.948Z,42.14
2018-08-22T18:13:16.743Z,42.30
2018-08-22T18:15:48.164Z,42.57
2018-08-22T18:18:20.594Z,42.60
2018-08-22T18:20:51.289Z,42.61
2018-08-22T18:23:21.060Z,42.40
2018-08-22T18:57:51.632Z,46.00
2018-08-22T19:00:23.124Z,46.33
2018-08-22T19:02:55.396Z,47.06
2018-08-22T19:05:30.761Z,46.27
2018-08-22T19:25:20.699Z,48.63
2018-08-22T19:27:50.608Z,48.71
2018-08-22T19:30:20.154Z,48.85
2018-08-22T19:32:49.629Z,48.80
2018-08-22T19:35:19.222Z,49.13
2018-08-22T19:55:10.980Z,49.87
2018-08-22T19:57:41.958Z,49.65
2018-08-22T20:00:12.861Z,50.46
2018-08-22T20:02:42.532Z,50.43
2018-08-22T20:05:12.795Z,50.73
2018-08-22T20:07:42.223Z,50.06
2018-08-22T20:10:12.169Z,50.00
2018-08-22T20:12:43.243Z,49.55
2018-08-22T20:15:12.895Z,50.11
2018-08-22T20:17:45.780Z,49.96
2018-08-22T20:20:15.246Z,50.44
2018-08-22T20:22:45.863Z,50.24
2018-08-22T20:25:15.438Z,49.83
2018-08-22T20:42:11.626Z,49.26
2018-08-22T20:44:41.581Z,49.69
2018-08-22T20:47:11.498Z,50.12
2018-08-22T20:49:41.215Z,49.60
2018-08-22T20:52:11.305Z,49.97
2018-08-22T20:54:40.851Z,49.88
2018-08-22T20:57:12.783Z,50.27
2018-08-22T20:59:42.676Z,50.49
2018-08-22T21:02:12.240Z,50.40
2018-08-22T21:04:42.386Z,50.97
2018-08-22T21:07:11.974Z,51.11
2018-08-22T21:09:41.427Z,50.74
2018-08-22T21:12:11.223Z,51.26
2018-08-22T21:14:40.976Z,51.62
2018-08-22T21:17:10.446Z,51.98
2018-08-22T21:19:40.020Z,52.01
2018-08-22T21:22:22.279Z,52.32
2018-08-22T21:24:52.428Z,52.35
2018-08-22T21:27:21.978Z,51.83
2018-08-22T21:29:51.498Z,50.90
2018-08-22T21:32:21.235Z,50.61
2018-08-22T21:34:50.698Z,50.53
2018-08-22T21:37:27.258Z,50.72
2018-08-22T21:39:57.049Z,51.06
2018-08-22T21:42:29.689Z,51.31
2018-08-22T21:44:59.182Z,51.05
2018-08-22T21:47:28.846Z,51.43
2018-08-22T21:49:58.525Z,50.57
2018-08-22T21:52:35.516Z,50.35
2018-08-22T21:55:05.206Z,50.57
2018-08-22T21:57:34.754Z,50.00
2018-08-22T22:00:09.871Z,50.22
2018-08-22T22:02:44.765Z,51.65
2018-08-22T22:05:14.105Z,51.08
2018-08-22T22:07:43.806Z,52.40
2018-08-22T22:10:13.643Z,51.37
2018-08-22T22:12:43.525Z,51.68
2018-08-22T22:15:18.422Z,51.52
2018-08-22T22:17:48.194Z,51.67
2018-08-22T22:20:18.279Z,51.45
2018-08-22T22:22:47.716Z,52.26
2018-08-22T22:25:17.811Z,50.82
2018-08-22T22:27:47.384Z,51.71
2018-08-22T22:30:16.924Z,51.53
2018-08-22T22:32:47.014Z,51.12
2018-08-22T22:35:24.656Z,50.68
2018-08-22T22:37:58.791Z,50.18
2018-08-22T22:40:30.449Z,49.67
2018-08-22T22:43:00.068Z,49.28
2018-08-22T22:45:29.669Z,50.26
2018-08-22T22:47:59.215Z,51.30
2018-08-22T22:50:28.784Z,52.15
2018-08-22T22:52:58.233Z,49.91
2018-08-22T22:55:27.961Z,49.38
2018-08-22T22:57:57.855Z,49.04
2018-08-22T23:00:29.651Z,48.60
2018-08-22T23:03:04.241Z,48.36
2018-08-22T23:05:33.837Z,47.35
2018-08-22T23:08:03.715Z,45.76
2018-08-22T23:10:33.370Z,45.85
2018-08-22T23:13:03.183Z,46.60
2018-08-22T23:15:32.813Z,46.20
2018-08-22T23:18:02.854Z,47.08
2018-08-22T23:20:35.728Z,43.98
2018-08-22T23:23:38.882Z,43.89
2018-08-22T23:26:15.888Z,44.69
2018-08-22T23:28:45.950Z,43.85
2018-08-22T23:31:17.215Z,43.42
2018-08-22T23:33:46.846Z,43.96
2018-08-22T23:36:16.476Z,43.68
2018-08-22T23:38:46.028Z,42.76
2018-08-22T23:41:15.433Z,43.19
2018-08-22T23:43:50.167Z,43.43
2018-08-22T23:46:20.085Z,42.89
2018-08-22T23:48:55.284Z,42.50
2018-08-22T23:51:25.027Z,42.07
2018-08-22T23:53:58.502Z,42.25
2018-08-22T23:56:30.629Z,43.09
2018-08-22T23:59:00.447Z,41.73
